Patricia Ann — WDE2845 — position and weather

sailwx.info

Track history (hours):
 
Tides and Currents Weather Stations Pressure Air Temp Water Temp Dewpoint Dewpoint Depression Visibility Wind Speed Wind Dir Waves Ship Positions

Patricia Ann

Owner: AmNav Maritime Services, Oakland, CA. More information available from US FCC via Universal Licensing System and Coast Guard Vessel Documentation Center.

Last reported at 2015-Mar-27 16:33 UTC. Time now 2015-Mar-27 17:24 UTC.
Position N 37°49' W 122°20'.

Length 24 m; draft 4.9 m.

Type: Tug. MMSI: 367330510.

Date/timePositionNaut miles runAvg speedWind from/ knotsBaromVisibWave heightAir tempDewpointWater temp
2015-Mar-27 16:33N 37°49' W 122°20'1 0.6
2015-Mar-27 15:33N 37°48' W 122°21'1 0.9
2015-Mar-27 14:33N 37°49' W 122°19'1 0.6
2015-Mar-27 13:33N 37°49' W 122°20'1 0.6
2015-Mar-27 12:33N 37°49' W 122°19'1 0.7
2015-Mar-27 11:32N 37°49' W 122°19'0 0.0
2015-Mar-27 10:33N 37°49' W 122°19'0 0.0
2015-Mar-27 09:33N 37°49' W 122°19'0 0.0
2015-Mar-27 08:33N 37°49' W 122°19'0 0.0
2015-Mar-27 07:33N 37°49' W 122°19'0 0.0
2015-Mar-27 06:33N 37°49' W 122°19'0 0.0
2015-Mar-27 05:33N 37°49' W 122°19'0 0.0
2015-Mar-27 04:33N 37°49' W 122°19'0 0.0
2015-Mar-27 03:33N 37°49' W 122°19'1 0.9
2015-Mar-27 02:33N 37°49' W 122°20'1 0.9
2015-Mar-27 01:33N 37°49' W 122°19'0 0.0
2015-Mar-27 00:33N 37°49' W 122°19'0 0.0
2015-Mar-26 23:33N 37°49' W 122°19'0 0.0
2015-Mar-26 22:33N 37°49' W 122°19'0 0.0
2015-Mar-26 21:33N 37°49' W 122°19'0 0.0
2015-Mar-26 20:33N 37°49' W 122°19'0 0.0
2015-Mar-26 19:33N 37°49' W 122°19'0 0.0
2015-Mar-26 18:33N 37°49' W 122°19'0 0.0
2015-Mar-26 17:33N 37°49' W 122°19'0 0.0
2015-Mar-26 16:33N 37°49' W 122°19'0 0.0
2015-Mar-26 15:33N 37°49' W 122°19'0 0.0
2015-Mar-26 14:33N 37°49' W 122°19'0 0.0
2015-Mar-26 13:33N 37°49' W 122°19'0 0.0
2015-Mar-26 12:33N 37°49' W 122°19'0 0.0
2015-Mar-26 11:33N 37°49' W 122°19'0 0.3
2015-Mar-26 10:33N 37°49' W 122°19'0 0.2
2015-Mar-26 09:33N 37°49' W 122°19'0 0.1
2015-Mar-26 08:33N 37°49' W 122°19'0 0.0
2015-Mar-26 07:33N 37°49' W 122°19'0 0.0
2015-Mar-26 06:33N 37°49' W 122°19'0 0.0
2015-Mar-26 05:33N 37°49' W 122°19'0 0.0
2015-Mar-26 04:33N 37°49' W 122°19'0 0.0
2015-Mar-26 03:33N 37°49' W 122°19'0 0.0
2015-Mar-26 02:33N 37°49' W 122°19'0 0.0
2015-Mar-26 01:33N 37°49' W 122°19'1 1.3
2015-Mar-26 00:33N 37°49' W 122°20'0 0.5
2015-Mar-25 23:33N 37°48' W 122°21'2 1.8
2015-Mar-25 22:33N 37°49' W 122°19'0 0.0
2015-Mar-25 21:33N 37°49' W 122°19'0 0.0
2015-Mar-25 20:32N 37°49' W 122°19'1 1.4
2015-Mar-25 19:33N 37°49' W 122°20'2 2.4
2015-Mar-25 18:33N 37°48' W 122°18'4 3.8
2015-Mar-25 17:33N 37°48' W 122°22'3 3.0
2015-Mar-25 16:33N 37°49' W 122°19'0 0.0
2015-Mar-25 15:33N 37°49' W 122°19'0 0.0
2015-Mar-25 14:33N 37°49' W 122°19'0 0.0
2015-Mar-25 13:33N 37°49' W 122°19'0 0.0
2015-Mar-25 12:33N 37°49' W 122°19'0 0.0
2015-Mar-25 11:33N 37°49' W 122°19'0 0.0
2015-Mar-25 10:33N 37°49' W 122°19'0 0.0
2015-Mar-25 09:33N 37°49' W 122°19'0 0.0
2015-Mar-25 08:33N 37°49' W 122°19'0 0.0
2015-Mar-25 07:33N 37°49' W 122°19'0 0.0
2015-Mar-25 06:33N 37°49' W 122°19'0 0.0
2015-Mar-25 05:33N 37°49' W 122°19'0 0.0
2015-Mar-25 04:33N 37°49' W 122°19'0 0.0
2015-Mar-25 03:33N 37°49' W 122°19'0 0.0
2015-Mar-25 02:33N 37°49' W 122°19'0 0.0
2015-Mar-25 01:33N 37°49' W 122°19'0 0.0
2015-Mar-25 00:33N 37°49' W 122°19'2 1.8
2015-Mar-24 23:33N 37°48' W 122°21'1 0.5
2015-Mar-24 22:33N 37°49' W 122°20'0 0.0
2015-Mar-24 21:33N 37°49' W 122°20'0 0.0
2015-Mar-24 20:33N 37°49' W 122°20'0 0.4
2015-Mar-24 19:33N 37°49' W 122°20'0 0.3
2015-Mar-24 18:33N 37°49' W 122°20'0 0.0
2015-Mar-24 17:33N 37°49' W 122°20'0 0.0
2015-Mar-24 16:33N 37°49' W 122°20'0 0.0
2015-Mar-24 15:33N 37°49' W 122°20'0 0.0
2015-Mar-24 14:33N 37°49' W 122°20'0 0.0
2015-Mar-24 13:33N 37°49' W 122°20'7 7.1
2015-Mar-24 12:33N 37°42' W 122°20'1010.1
2015-Mar-24 11:33N 37°33' W 122°12'3 2.8
2015-Mar-24 10:32N 37°31' W 122°13'3 3.3
2015-Mar-24 09:33N 37°34' W 122°13'10 9.8
2015-Mar-24 08:33N 37°42' W 122°20'8 7.7
2015-Mar-24 07:33N 37°49' W 122°19'0 0.0
2015-Mar-24 06:33N 37°49' W 122°19'0 0.0
2015-Mar-24 05:33N 37°49' W 122°19'0 0.0
2015-Mar-24 04:33N 37°49' W 122°19'0 0.0
2015-Mar-24 03:33N 37°49' W 122°19'0 0.0
2015-Mar-24 02:33N 37°49' W 122°19'0 0.0
2015-Mar-24 01:33N 37°49' W 122°19'0 0.0
2015-Mar-24 00:33N 37°49' W 122°19'0 0.0
2015-Mar-23 23:33N 37°49' W 122°19'5 4.7
2015-Mar-23 22:34N 37°46' W 122°23'0 0.0
2015-Mar-23 21:34N 37°46' W 122°23'0 0.1
2015-Mar-23 20:33N 37°46' W 122°23'0 0.1
2015-Mar-23 19:34N 37°46' W 122°23'0 0.1
2015-Mar-23 18:33N 37°46' W 122°23'0 0.1
2015-Mar-23 17:33N 37°46' W 122°23'3 3.1
2015-Mar-23 16:34N 37°48' W 122°21'0 0.2
2015-Mar-23 15:34N 37°48' W 122°21'2 1.6
2015-Mar-23 14:34N 37°49' W 122°19'0 0.1
2015-Mar-23 13:33N 37°49' W 122°19'0 0.0
2015-Mar-23 12:33N 37°49' W 122°19'0 0.0
2015-Mar-23 11:33N 37°49' W 122°19'0 0.0
2015-Mar-23 10:33N 37°49' W 122°19'0 0.0
2015-Mar-23 09:33N 37°49' W 122°19'0 0.0
2015-Mar-23 08:33N 37°49' W 122°19'0 0.0
2015-Mar-23 07:33N 37°49' W 122°19'0 0.0
2015-Mar-23 06:33N 37°49' W 122°19'0 0.0
2015-Mar-23 05:33N 37°49' W 122°19'0 0.0
2015-Mar-23 04:33N 37°49' W 122°19'0 0.0
2015-Mar-23 03:33N 37°49' W 122°19'0 0.0
2015-Mar-23 02:33N 37°49' W 122°19'0 0.0
2015-Mar-23 01:33N 37°49' W 122°19'1 0.6
2015-Mar-23 00:33N 37°49' W 122°19'1 1.1
2015-Mar-22 23:34N 37°48' W 122°19'0 0.2
2015-Mar-22 22:34N 37°48' W 122°19'2 1.7
2015-Mar-22 21:34N 37°49' W 122°19'0 0.0
2015-Mar-22 20:33N 37°49' W 122°19'0 0.0
2015-Mar-22 19:33N 37°49' W 122°19'0 0.0
2015-Mar-22 18:33N 37°49' W 122°19'0 0.0
2015-Mar-22 17:34N 37°49' W 122°19'2 2.0
2015-Mar-22 16:33N 37°48' W 122°17'1 1.5
2015-Mar-22 15:34N 37°48' W 122°19'1 1.0
2015-Mar-22 14:34N 37°49' W 122°19'1 0.7
2015-Mar-22 13:33N 37°49' W 122°19'0 0.0
2015-Mar-22 12:33N 37°49' W 122°19'0 0.0
2015-Mar-22 11:34N 37°49' W 122°19'0 0.0
2015-Mar-22 10:34N 37°49' W 122°19'0 0.0
2015-Mar-22 09:33N 37°49' W 122°19'0 0.0
2015-Mar-22 08:33N 37°49' W 122°19'0 0.0
2015-Mar-22 07:33N 37°49' W 122°19'0 0.0
2015-Mar-22 06:33N 37°49' W 122°19'0 0.0
2015-Mar-22 05:33N 37°49' W 122°19'0 0.0
2015-Mar-22 04:34N 37°49' W 122°19'0 0.0
2015-Mar-22 03:33N 37°49' W 122°19'0 0.0
2015-Mar-22 02:33N 37°49' W 122°19'0 0.0
2015-Mar-22 01:33N 37°49' W 122°19'4 3.6
2015-Mar-22 00:33N 37°49' W 122°23'1 0.8
2015-Mar-21 23:34N 37°48' W 122°24'4 4.3
2015-Mar-21 22:33N 37°49' W 122°19'0 0.0
2015-Mar-21 21:33N 37°49' W 122°19'0 0.0
2015-Mar-21 20:33N 37°49' W 122°19'0 0.0
2015-Mar-21 19:33N 37°49' W 122°19'0 0.0
2015-Mar-21 18:33N 37°49' W 122°19'0 0.0
2015-Mar-21 17:34N 37°49' W 122°19'0 0.0
2015-Mar-21 16:33N 37°49' W 122°19'0 0.0
2015-Mar-21 15:33N 37°49' W 122°19'1 1.1
2015-Mar-21 14:33N 37°49' W 122°20'1 1.0
2015-Mar-21 13:33N 37°48' W 122°19'1 1.0
2015-Mar-21 12:33N 37°48' W 122°20'0 0.3
2015-Mar-21 11:33N 37°48' W 122°21'0 0.0
2015-Mar-21 10:33N 37°48' W 122°21'0 0.0
2015-Mar-21 09:33N 37°48' W 122°21'2 1.8
2015-Mar-21 08:33N 37°49' W 122°19'0 0.0
2015-Mar-21 07:33N 37°49' W 122°19'0 0.0
2015-Mar-21 06:33N 37°49' W 122°19'0 0.0
2015-Mar-21 05:33N 37°49' W 122°19'0 0.0
2015-Mar-21 04:33N 37°49' W 122°19'0 0.0
2015-Mar-21 03:33N 37°49' W 122°19'0 0.0
2015-Mar-21 02:33N 37°49' W 122°19'0 0.0
2015-Mar-21 01:33N 37°49' W 122°19'0 0.0
2015-Mar-21 00:33N 37°49' W 122°19'0 0.0
2015-Mar-20 23:33N 37°49' W 122°19'0 0.0
2015-Mar-20 22:33N 37°49' W 122°19'0 0.0
2015-Mar-20 21:33N 37°49' W 122°19'0 0.0
2015-Mar-20 20:33N 37°49' W 122°19'0 0.0
2015-Mar-20 19:33N 37°49' W 122°19'0 0.0
2015-Mar-20 18:33N 37°49' W 122°19'0 0.0
2015-Mar-20 17:33N 37°49' W 122°19'0 0.0
2015-Mar-20 16:29N 37°49' W 122°19'0 0.0
2015-Mar-20 15:33N 37°49' W 122°19'0 0.0
2015-Mar-20 14:33N 37°49' W 122°19'0 0.0
2015-Mar-20 13:33N 37°49' W 122°19'0 0.0
2015-Mar-20 12:33N 37°49' W 122°19'0 0.0
2015-Mar-20 11:33N 37°49' W 122°19'0 0.0
2015-Mar-20 10:33N 37°49' W 122°19'0 0.0
2015-Mar-20 09:33N 37°49' W 122°19'0 0.0
2015-Mar-20 08:33N 37°49' W 122°19'0 0.0
2015-Mar-20 07:33N 37°49' W 122°19'0 0.0
2015-Mar-20 06:33N 37°49' W 122°19'0 0.0
2015-Mar-20 05:33N 37°49' W 122°19'0 0.0
2015-Mar-20 04:33N 37°49' W 122°19'0 0.0
2015-Mar-20 03:33N 37°49' W 122°19'0 0.0
2015-Mar-20 02:33N 37°49' W 122°19'2 1.5
2015-Mar-20 01:33N 37°49' W 122°20'1 1.4
2015-Mar-20 00:33N 37°48' W 122°22'2 2.1
2015-Mar-19 23:33N 37°48' W 122°19'0 0.1
2015-Mar-19 22:34N 37°48' W 122°19'1 1.0
2015-Mar-19 21:33N 37°49' W 122°20'1 1.0
2015-Mar-19 20:33N 37°49' W 122°19'0 0.0
2015-Mar-19 19:33N 37°49' W 122°19'0 0.0
2015-Mar-19 18:33N 37°49' W 122°19'0 0.0
2015-Mar-19 17:33N 37°49' W 122°19'0 0.0
2015-Mar-19 16:33N 37°49' W 122°19'0 0.0
2015-Mar-19 15:33N 37°49' W 122°19'0 0.0
2015-Mar-19 14:33N 37°49' W 122°19'2 2.0
2015-Mar-19 13:33N 37°48' W 122°21'0 0.3
2015-Mar-19 12:34N 37°48' W 122°21'0 0.0
2015-Mar-19 11:33N 37°48' W 122°21'1 1.4
2015-Mar-19 10:34N 37°49' W 122°19'0 0.3
2015-Mar-19 09:33N 37°49' W 122°19'0 0.0
2015-Mar-19 08:33N 37°49' W 122°19'0 0.0
2015-Mar-19 07:33N 37°49' W 122°19'0 0.0
2015-Mar-19 06:33N 37°49' W 122°19'0 0.0
2015-Mar-19 05:33N 37°49' W 122°19'0 0.0
2015-Mar-19 04:33N 37°49' W 122°19'0 0.0
2015-Mar-19 03:33N 37°49' W 122°19'0 0.0
2015-Mar-19 02:33N 37°49' W 122°19'3 3.2
2015-Mar-19 01:33N 37°48' W 122°22'1 0.9
2015-Mar-19 00:33N 37°48' W 122°21'2 1.5
2015-Mar-18 23:33N 37°48' W 122°19'2 2.4
2015-Mar-18 22:34N 37°48' W 122°22'3 3.0
2015-Mar-18 21:33N 37°49' W 122°19'0 0.0
2015-Mar-18 20:33N 37°49' W 122°19'0 0.0
2015-Mar-18 19:33N 37°49' W 122°19'0 0.0
2015-Mar-18 18:33N 37°49' W 122°19'0 0.0
2015-Mar-18 17:33N 37°49' W 122°19'0 0.0
2015-Mar-18 16:33N 37°49' W 122°19'0 0.0
2015-Mar-18 15:33N 37°49' W 122°19'0 0.0
2015-Mar-18 14:33N 37°49' W 122°19'0 0.0
2015-Mar-18 13:33N 37°49' W 122°19'0 0.0
2015-Mar-18 12:33N 37°49' W 122°19'0 0.0
2015-Mar-18 11:33N 37°49' W 122°19'0 0.0
2015-Mar-18 10:33N 37°49' W 122°19'0 0.0
2015-Mar-18 09:33N 37°49' W 122°19'0 0.0
2015-Mar-18 08:33N 37°49' W 122°19'0 0.0
2015-Mar-18 07:33N 37°49' W 122°19'0 0.0
2015-Mar-18 06:33N 37°49' W 122°19'0 0.0
2015-Mar-18 05:34N 37°49' W 122°19'0 0.0
2015-Mar-18 04:34N 37°49' W 122°19'0 0.0
2015-Mar-18 03:33N 37°49' W 122°19'0 0.4
2015-Mar-18 02:34N 37°49' W 122°19'3 3.0
2015-Mar-18 01:34N 37°48' W 122°22'3 3.5
2015-Mar-18 00:33N 37°48' W 122°18'0 0.0
2015-Mar-17 23:34N 37°48' W 122°18'2 1.8
2015-Mar-17 22:33N 37°49' W 122°19'0 0.0
2015-Mar-17 21:33N 37°49' W 122°19'0 0.0
2015-Mar-17 20:33N 37°49' W 122°19'0 0.0
2015-Mar-17 19:34N 37°49' W 122°19'0 0.0
2015-Mar-17 18:33N 37°49' W 122°19'0 0.0
2015-Mar-17 17:33N 37°49' W 122°19'1 1.0
2015-Mar-17 16:33N 37°49' W 122°20'  
Track history (hours):
 
Tides and Currents Weather Stations Pressure Air Temp Water Temp Dewpoint Dewpoint Depression Visibility Wind Speed Wind Dir Waves Ship Positions

Patricia Ann

Owner: AmNav Maritime Services, Oakland, CA. More information available from US FCC via Universal Licensing System and Coast Guard Vessel Documentation Center.

Last reported at 2015-Mar-27 16:33 UTC. Time now 2015-Mar-27 17:24 UTC.
Position N 37°49' W 122°20'.

Length 24 m; draft 4.9 m.

Type: Tug. MMSI: 367330510.

Date/timePositionNaut miles runAvg speedWind from/ knotsBaromVisibWave heightAir tempDewpointWater temp
2015-Mar-27 16:33N 37°49' W 122°20'1 0.6
2015-Mar-27 15:33N 37°48' W 122°21'1 0.9
2015-Mar-27 14:33N 37°49' W 122°19'1 0.6
2015-Mar-27 13:33N 37°49' W 122°20'1 0.6
2015-Mar-27 12:33N 37°49' W 122°19'1 0.7
2015-Mar-27 11:32N 37°49' W 122°19'0 0.0
2015-Mar-27 10:33N 37°49' W 122°19'0 0.0
2015-Mar-27 09:33N 37°49' W 122°19'0 0.0
2015-Mar-27 08:33N 37°49' W 122°19'0 0.0
2015-Mar-27 07:33N 37°49' W 122°19'0 0.0
2015-Mar-27 06:33N 37°49' W 122°19'0 0.0
2015-Mar-27 05:33N 37°49' W 122°19'0 0.0
2015-Mar-27 04:33N 37°49' W 122°19'0 0.0
2015-Mar-27 03:33N 37°49' W 122°19'1 0.9
2015-Mar-27 02:33N 37°49' W 122°20'1 0.9
2015-Mar-27 01:33N 37°49' W 122°19'0 0.0
2015-Mar-27 00:33N 37°49' W 122°19'0 0.0
2015-Mar-26 23:33N 37°49' W 122°19'0 0.0
2015-Mar-26 22:33N 37°49' W 122°19'0 0.0
2015-Mar-26 21:33N 37°49' W 122°19'0 0.0
2015-Mar-26 20:33N 37°49' W 122°19'0 0.0
2015-Mar-26 19:33N 37°49' W 122°19'0 0.0
2015-Mar-26 18:33N 37°49' W 122°19'0 0.0
2015-Mar-26 17:33N 37°49' W 122°19'0 0.0
2015-Mar-26 16:33N 37°49' W 122°19'0 0.0
2015-Mar-26 15:33N 37°49' W 122°19'0 0.0
2015-Mar-26 14:33N 37°49' W 122°19'0 0.0
2015-Mar-26 13:33N 37°49' W 122°19'0 0.0
2015-Mar-26 12:33N 37°49' W 122°19'0 0.0
2015-Mar-26 11:33N 37°49' W 122°19'0 0.3
2015-Mar-26 10:33N 37°49' W 122°19'0 0.2
2015-Mar-26 09:33N 37°49' W 122°19'0 0.1
2015-Mar-26 08:33N 37°49' W 122°19'0 0.0
2015-Mar-26 07:33N 37°49' W 122°19'0 0.0
2015-Mar-26 06:33N 37°49' W 122°19'0 0.0
2015-Mar-26 05:33N 37°49' W 122°19'0 0.0
2015-Mar-26 04:33N 37°49' W 122°19'0 0.0
2015-Mar-26 03:33N 37°49' W 122°19'0 0.0
2015-Mar-26 02:33N 37°49' W 122°19'0 0.0
2015-Mar-26 01:33N 37°49' W 122°19'1 1.3
2015-Mar-26 00:33N 37°49' W 122°20'0 0.5
2015-Mar-25 23:33N 37°48' W 122°21'2 1.8
2015-Mar-25 22:33N 37°49' W 122°19'0 0.0
2015-Mar-25 21:33N 37°49' W 122°19'0 0.0
2015-Mar-25 20:32N 37°49' W 122°19'1 1.4
2015-Mar-25 19:33N 37°49' W 122°20'2 2.4
2015-Mar-25 18:33N 37°48' W 122°18'4 3.8
2015-Mar-25 17:33N 37°48' W 122°22'3 3.0
2015-Mar-25 16:33N 37°49' W 122°19'0 0.0
2015-Mar-25 15:33N 37°49' W 122°19'0 0.0
2015-Mar-25 14:33N 37°49' W 122°19'0 0.0
2015-Mar-25 13:33N 37°49' W 122°19'0 0.0
2015-Mar-25 12:33N 37°49' W 122°19'0 0.0
2015-Mar-25 11:33N 37°49' W 122°19'0 0.0
2015-Mar-25 10:33N 37°49' W 122°19'0 0.0
2015-Mar-25 09:33N 37°49' W 122°19'0 0.0
2015-Mar-25 08:33N 37°49' W 122°19'0 0.0
2015-Mar-25 07:33N 37°49' W 122°19'0 0.0
2015-Mar-25 06:33N 37°49' W 122°19'0 0.0
2015-Mar-25 05:33N 37°49' W 122°19'0 0.0
2015-Mar-25 04:33N 37°49' W 122°19'0 0.0
2015-Mar-25 03:33N 37°49' W 122°19'0 0.0
2015-Mar-25 02:33N 37°49' W 122°19'0 0.0
2015-Mar-25 01:33N 37°49' W 122°19'0 0.0
2015-Mar-25 00:33N 37°49' W 122°19'2 1.8
2015-Mar-24 23:33N 37°48' W 122°21'1 0.5
2015-Mar-24 22:33N 37°49' W 122°20'0 0.0
2015-Mar-24 21:33N 37°49' W 122°20'0 0.0
2015-Mar-24 20:33N 37°49' W 122°20'0 0.4
2015-Mar-24 19:33N 37°49' W 122°20'0 0.3
2015-Mar-24 18:33N 37°49' W 122°20'0 0.0
2015-Mar-24 17:33N 37°49' W 122°20'0 0.0
2015-Mar-24 16:33N 37°49' W 122°20'0 0.0
2015-Mar-24 15:33N 37°49' W 122°20'0 0.0
2015-Mar-24 14:33N 37°49' W 122°20'0 0.0
2015-Mar-24 13:33N 37°49' W 122°20'7 7.1
2015-Mar-24 12:33N 37°42' W 122°20'1010.1
2015-Mar-24 11:33N 37°33' W 122°12'3 2.8
2015-Mar-24 10:32N 37°31' W 122°13'3 3.3
2015-Mar-24 09:33N 37°34' W 122°13'10 9.8
2015-Mar-24 08:33N 37°42' W 122°20'8 7.7
2015-Mar-24 07:33N 37°49' W 122°19'0 0.0
2015-Mar-24 06:33N 37°49' W 122°19'0 0.0
2015-Mar-24 05:33N 37°49' W 122°19'0 0.0
2015-Mar-24 04:33N 37°49' W 122°19'0 0.0
2015-Mar-24 03:33N 37°49' W 122°19'0 0.0
2015-Mar-24 02:33N 37°49' W 122°19'0 0.0
2015-Mar-24 01:33N 37°49' W 122°19'0 0.0
2015-Mar-24 00:33N 37°49' W 122°19'0 0.0
2015-Mar-23 23:33N 37°49' W 122°19'5 4.7
2015-Mar-23 22:34N 37°46' W 122°23'0 0.0
2015-Mar-23 21:34N 37°46' W 122°23'0 0.1
2015-Mar-23 20:33N 37°46' W 122°23'0 0.1
2015-Mar-23 19:34N 37°46' W 122°23'0 0.1
2015-Mar-23 18:33N 37°46' W 122°23'0 0.1
2015-Mar-23 17:33N 37°46' W 122°23'3 3.1
2015-Mar-23 16:34N 37°48' W 122°21'0 0.2
2015-Mar-23 15:34N 37°48' W 122°21'2 1.6
2015-Mar-23 14:34N 37°49' W 122°19'0 0.1
2015-Mar-23 13:33N 37°49' W 122°19'0 0.0
2015-Mar-23 12:33N 37°49' W 122°19'0 0.0
2015-Mar-23 11:33N 37°49' W 122°19'0 0.0
2015-Mar-23 10:33N 37°49' W 122°19'0 0.0
2015-Mar-23 09:33N 37°49' W 122°19'0 0.0
2015-Mar-23 08:33N 37°49' W 122°19'0 0.0
2015-Mar-23 07:33N 37°49' W 122°19'0 0.0
2015-Mar-23 06:33N 37°49' W 122°19'0 0.0
2015-Mar-23 05:33N 37°49' W 122°19'0 0.0
2015-Mar-23 04:33N 37°49' W 122°19'0 0.0
2015-Mar-23 03:33N 37°49' W 122°19'0 0.0
2015-Mar-23 02:33N 37°49' W 122°19'0 0.0
2015-Mar-23 01:33N 37°49' W 122°19'1 0.6
2015-Mar-23 00:33N 37°49' W 122°19'1 1.1
2015-Mar-22 23:34N 37°48' W 122°19'0 0.2
2015-Mar-22 22:34N 37°48' W 122°19'2 1.7
2015-Mar-22 21:34N 37°49' W 122°19'0 0.0
2015-Mar-22 20:33N 37°49' W 122°19'0 0.0
2015-Mar-22 19:33N 37°49' W 122°19'0 0.0
2015-Mar-22 18:33N 37°49' W 122°19'0 0.0
2015-Mar-22 17:34N 37°49' W 122°19'2 2.0
2015-Mar-22 16:33N 37°48' W 122°17'1 1.5
2015-Mar-22 15:34N 37°48' W 122°19'1 1.0
2015-Mar-22 14:34N 37°49' W 122°19'1 0.7
2015-Mar-22 13:33N 37°49' W 122°19'0 0.0
2015-Mar-22 12:33N 37°49' W 122°19'0 0.0
2015-Mar-22 11:34N 37°49' W 122°19'0 0.0
2015-Mar-22 10:34N 37°49' W 122°19'0 0.0
2015-Mar-22 09:33N 37°49' W 122°19'0 0.0
2015-Mar-22 08:33N 37°49' W 122°19'0 0.0
2015-Mar-22 07:33N 37°49' W 122°19'0 0.0
2015-Mar-22 06:33N 37°49' W 122°19'0 0.0
2015-Mar-22 05:33N 37°49' W 122°19'0 0.0
2015-Mar-22 04:34N 37°49' W 122°19'0 0.0
2015-Mar-22 03:33N 37°49' W 122°19'0 0.0
2015-Mar-22 02:33N 37°49' W 122°19'0 0.0
2015-Mar-22 01:33N 37°49' W 122°19'4 3.6
2015-Mar-22 00:33N 37°49' W 122°23'1 0.8
2015-Mar-21 23:34N 37°48' W 122°24'4 4.3
2015-Mar-21 22:33N 37°49' W 122°19'0 0.0
2015-Mar-21 21:33N 37°49' W 122°19'0 0.0
2015-Mar-21 20:33N 37°49' W 122°19'0 0.0
2015-Mar-21 19:33N 37°49' W 122°19'0 0.0
2015-Mar-21 18:33N 37°49' W 122°19'0 0.0
2015-Mar-21 17:34N 37°49' W 122°19'0 0.0
2015-Mar-21 16:33N 37°49' W 122°19'0 0.0
2015-Mar-21 15:33N 37°49' W 122°19'1 1.1
2015-Mar-21 14:33N 37°49' W 122°20'1 1.0
2015-Mar-21 13:33N 37°48' W 122°19'1 1.0
2015-Mar-21 12:33N 37°48' W 122°20'0 0.3
2015-Mar-21 11:33N 37°48' W 122°21'0 0.0
2015-Mar-21 10:33N 37°48' W 122°21'0 0.0
2015-Mar-21 09:33N 37°48' W 122°21'2 1.8
2015-Mar-21 08:33N 37°49' W 122°19'0 0.0
2015-Mar-21 07:33N 37°49' W 122°19'0 0.0
2015-Mar-21 06:33N 37°49' W 122°19'0 0.0
2015-Mar-21 05:33N 37°49' W 122°19'0 0.0
2015-Mar-21 04:33N 37°49' W 122°19'0 0.0
2015-Mar-21 03:33N 37°49' W 122°19'0 0.0
2015-Mar-21 02:33N 37°49' W 122°19'0 0.0
2015-Mar-21 01:33N 37°49' W 122°19'0 0.0
2015-Mar-21 00:33N 37°49' W 122°19'0 0.0
2015-Mar-20 23:33N 37°49' W 122°19'0 0.0
2015-Mar-20 22:33N 37°49' W 122°19'0 0.0
2015-Mar-20 21:33N 37°49' W 122°19'0 0.0
2015-Mar-20 20:33N 37°49' W 122°19'0 0.0
2015-Mar-20 19:33N 37°49' W 122°19'0 0.0
2015-Mar-20 18:33N 37°49' W 122°19'0 0.0
2015-Mar-20 17:33N 37°49' W 122°19'0 0.0
2015-Mar-20 16:29N 37°49' W 122°19'0 0.0
2015-Mar-20 15:33N 37°49' W 122°19'0 0.0
2015-Mar-20 14:33N 37°49' W 122°19'0 0.0
2015-Mar-20 13:33N 37°49' W 122°19'0 0.0
2015-Mar-20 12:33N 37°49' W 122°19'0 0.0
2015-Mar-20 11:33N 37°49' W 122°19'0 0.0
2015-Mar-20 10:33N 37°49' W 122°19'0 0.0
2015-Mar-20 09:33N 37°49' W 122°19'0 0.0
2015-Mar-20 08:33N 37°49' W 122°19'0 0.0
2015-Mar-20 07:33N 37°49' W 122°19'0 0.0
2015-Mar-20 06:33N 37°49' W 122°19'0 0.0
2015-Mar-20 05:33N 37°49' W 122°19'0 0.0
2015-Mar-20 04:33N 37°49' W 122°19'0 0.0
2015-Mar-20 03:33N 37°49' W 122°19'0 0.0
2015-Mar-20 02:33N 37°49' W 122°19'2 1.5
2015-Mar-20 01:33N 37°49' W 122°20'1 1.4
2015-Mar-20 00:33N 37°48' W 122°22'2 2.1
2015-Mar-19 23:33N 37°48' W 122°19'0 0.1
2015-Mar-19 22:34N 37°48' W 122°19'1 1.0
2015-Mar-19 21:33N 37°49' W 122°20'1 1.0
2015-Mar-19 20:33N 37°49' W 122°19'0 0.0
2015-Mar-19 19:33N 37°49' W 122°19'0 0.0
2015-Mar-19 18:33N 37°49' W 122°19'0 0.0
2015-Mar-19 17:33N 37°49' W 122°19'0 0.0
2015-Mar-19 16:33N 37°49' W 122°19'0 0.0
2015-Mar-19 15:33N 37°49' W 122°19'0 0.0
2015-Mar-19 14:33N 37°49' W 122°19'2 2.0
2015-Mar-19 13:33N 37°48' W 122°21'0 0.3
2015-Mar-19 12:34N 37°48' W 122°21'0 0.0
2015-Mar-19 11:33N 37°48' W 122°21'1 1.4
2015-Mar-19 10:34N 37°49' W 122°19'0 0.3
2015-Mar-19 09:33N 37°49' W 122°19'0 0.0
2015-Mar-19 08:33N 37°49' W 122°19'0 0.0
2015-Mar-19 07:33N 37°49' W 122°19'0 0.0
2015-Mar-19 06:33N 37°49' W 122°19'0 0.0
2015-Mar-19 05:33N 37°49' W 122°19'0 0.0
2015-Mar-19 04:33N 37°49' W 122°19'0 0.0
2015-Mar-19 03:33N 37°49' W 122°19'0 0.0
2015-Mar-19 02:33N 37°49' W 122°19'3 3.2
2015-Mar-19 01:33N 37°48' W 122°22'1 0.9
2015-Mar-19 00:33N 37°48' W 122°21'2 1.5
2015-Mar-18 23:33N 37°48' W 122°19'2 2.4
2015-Mar-18 22:34N 37°48' W 122°22'3 3.0
2015-Mar-18 21:33N 37°49' W 122°19'0 0.0
2015-Mar-18 20:33N 37°49' W 122°19'0 0.0
2015-Mar-18 19:33N 37°49' W 122°19'0 0.0
2015-Mar-18 18:33N 37°49' W 122°19'0 0.0
2015-Mar-18 17:33N 37°49' W 122°19'0 0.0
2015-Mar-18 16:33N 37°49' W 122°19'0 0.0
2015-Mar-18 15:33N 37°49' W 122°19'0 0.0
2015-Mar-18 14:33N 37°49' W 122°19'0 0.0
2015-Mar-18 13:33N 37°49' W 122°19'0 0.0
2015-Mar-18 12:33N 37°49' W 122°19'0 0.0
2015-Mar-18 11:33N 37°49' W 122°19'0 0.0
2015-Mar-18 10:33N 37°49' W 122°19'0 0.0
2015-Mar-18 09:33N 37°49' W 122°19'0 0.0
2015-Mar-18 08:33N 37°49' W 122°19'0 0.0
2015-Mar-18 07:33N 37°49' W 122°19'0 0.0
2015-Mar-18 06:33N 37°49' W 122°19'0 0.0
2015-Mar-18 05:34N 37°49' W 122°19'0 0.0
2015-Mar-18 04:34N 37°49' W 122°19'0 0.0
2015-Mar-18 03:33N 37°49' W 122°19'0 0.4
2015-Mar-18 02:34N 37°49' W 122°19'3 3.0
2015-Mar-18 01:34N 37°48' W 122°22'3 3.5
2015-Mar-18 00:33N 37°48' W 122°18'0 0.0
2015-Mar-17 23:34N 37°48' W 122°18'2 1.8
2015-Mar-17 22:33N 37°49' W 122°19'0 0.0
2015-Mar-17 21:33N 37°49' W 122°19'0 0.0
2015-Mar-17 20:33N 37°49' W 122°19'0 0.0
2015-Mar-17 19:34N 37°49' W 122°19'0 0.0
2015-Mar-17 18:33N 37°49' W 122°19'0 0.0
2015-Mar-17 17:33N 37°49' W 122°19'1 1.0
2015-Mar-17 16:33N 37°49' W 122°20'  

Dump ship's entire track history